sensor_id;sensor_type;location;lat;lon;timestamp;temperature;humidity
36206;DHT22;22242;48.796;9.930;2023-04-16T00:00:25;6.70;99.90
36206;DHT22;22242;48.796;9.930;2023-04-16T00:02:54;6.70;99.90
36206;DHT22;22242;48.796;9.930;2023-04-16T00:05:21;6.70;99.90
36206;DHT22;22242;48.796;9.930;2023-04-16T00:07:48;6.60;99.90
36206;DHT22;22242;48.796;9.930;2023-04-16T00:10:16;6.60;99.90
36206;DHT22;22242;48.796;9.930;2023-04-16T00:12:43;6.70;99.90
36206;DHT22;22242;48.796;9.930;2023-04-16T00:15:11;6.80;99.90
36206;DHT22;22242;48.796;9.930;2023-04-16T00:17:38;6.80;99.90
36206;DHT22;22242;48.796;9.930;2023-04-16T00:20:07;6.70;99.90
36206;DHT22;22242;48.796;9.930;2023-04-16T00:22:34;6.70;99.90
36206;DHT22;22242;48.796;9.930;2023-04-16T00:25:02;6.80;99.90
36206;DHT22;22242;48.796;9.930;2023-04-16T00:27:29;6.70;99.90
36206;DHT22;22242;48.796;9.930;2023-04-16T00:29:56;6.80;99.90
36206;DHT22;22242;48.796;9.930;2023-04-16T00:32:24;6.70;99.90
36206;DHT22;22242;48.796;9.930;2023-04-16T00:34:51;6.80;99.90
36206;DHT22;22242;48.796;9.930;2023-04-16T00:37:19;6.80;99.90
36206;DHT22;22242;48.796;9.930;2023-04-16T00:39:46;6.80;99.90
36206;DHT22;22242;48.796;9.930;2023-04-16T00:42:14;6.70;99.90
36206;DHT22;22242;48.796;9.930;2023-04-16T00:44:41;6.80;99.90
36206;DHT22;22242;48.796;9.930;2023-04-16T00:47:08;6.90;99.90
36206;DHT22;22242;48.796;9.930;2023-04-16T00:49:36;6.80;99.90
36206;DHT22;22242;48.796;9.930;2023-04-16T00:52:03;6.80;99.90
36206;DHT22;22242;48.796;9.930;2023-04-16T00:54:32;6.90;99.90
36206;DHT22;22242;48.796;9.930;2023-04-16T00:56:59;6.80;99.90
36206;DHT22;22242;48.796;9.930;2023-04-16T00:59:28;6.90;99.90
36206;DHT22;22242;48.796;9.930;2023-04-16T01:01:55;6.80;99.90
36206;DHT22;22242;48.796;9.930;2023-04-16T01:04:22;6.90;99.90
36206;DHT22;22242;48.796;9.930;2023-04-16T01:06:49;6.90;99.90
36206;DHT22;22242;48.796;9.930;2023-04-16T01:09:17;6.90;99.90
36206;DHT22;22242;48.796;9.930;2023-04-16T01:11:45;6.90;99.90
36206;DHT22;22242;48.796;9.930;2023-04-16T01:14:12;6.90;99.90
36206;DHT22;22242;48.796;9.930;2023-04-16T01:16:39;6.90;99.90
36206;DHT22;22242;48.796;9.930;2023-04-16T01:19:06;6.90;99.90
36206;DHT22;22242;48.796;9.930;2023-04-16T01:21:35;6.80;99.90
36206;DHT22;22242;48.796;9.930;2023-04-16T01:24:02;6.80;99.90
36206;DHT22;22242;48.796;9.930;2023-04-16T01:26:30;6.90;99.90
36206;DHT22;22242;48.796;9.930;2023-04-16T01:28:57;6.90;99.90
36206;DHT22;22242;48.796;9.930;2023-04-16T01:31:25;6.90;99.90
36206;DHT22;22242;48.796;9.930;2023-04-16T01:34:16;6.80;99.90
36206;DHT22;22242;48.796;9.930;2023-04-16T01:36:45;6.80;99.90
36206;DHT22;22242;48.796;9.930;2023-04-16T01:39:12;6.80;99.90
36206;DHT22;22242;48.796;9.930;2023-04-16T01:41:41;6.80;99.90
36206;DHT22;22242;48.796;9.930;2023-04-16T01:44:08;6.90;99.90
36206;DHT22;22242;48.796;9.930;2023-04-16T01:46:36;6.90;99.90
36206;DHT22;22242;48.796;9.930;2023-04-16T01:49:04;6.90;99.90
36206;DHT22;22242;48.796;9.930;2023-04-16T01:51:32;6.90;99.90
36206;DHT22;22242;48.796;9.930;2023-04-16T01:54:00;6.90;99.90
36206;DHT22;22242;48.796;9.930;2023-04-16T01:56:27;6.80;99.90
36206;DHT22;22242;48.796;9.930;2023-04-16T01:58:54;6.90;99.90
36206;DHT22;22242;48.796;9.930;2023-04-16T02:01:23;6.90;99.90
36206;DHT22;22242;48.796;9.930;2023-04-16T02:03:50;6.90;99.90
36206;DHT22;22242;48.796;9.930;2023-04-16T02:06:17;7.00;99.90
36206;DHT22;22242;48.796;9.930;2023-04-16T02:08:45;7.00;99.90
36206;DHT22;22242;48.796;9.930;2023-04-16T02:11:15;7.00;99.90
36206;DHT22;22242;48.796;9.930;2023-04-16T02:13:42;7.00;99.90
36206;DHT22;22242;48.796;9.930;2023-04-16T02:16:09;7.00;99.90
36206;DHT22;22242;48.796;9.930;2023-04-16T02:18:47;7.00;99.90
36206;DHT22;22242;48.796;9.930;2023-04-16T02:21:16;7.00;99.90
36206;DHT22;22242;48.796;9.930;2023-04-16T02:23:44;7.00;99.90
36206;DHT22;22242;48.796;9.930;2023-04-16T02:26:18;7.00;99.90
36206;DHT22;22242;48.796;9.930;2023-04-16T02:28:46;7.00;99.90
36206;DHT22;22242;48.796;9.930;2023-04-16T02:31:14;7.00;99.90
36206;DHT22;22242;48.796;9.930;2023-04-16T02:33:44;6.90;99.90
36206;DHT22;22242;48.796;9.930;2023-04-16T02:36:11;7.00;99.90
36206;DHT22;22242;48.796;9.930;2023-04-16T02:38:38;7.00;99.90
36206;DHT22;22242;48.796;9.930;2023-04-16T02:41:06;7.00;99.90
36206;DHT22;22242;48.796;9.930;2023-04-16T02:43:34;6.90;99.90
36206;DHT22;22242;48.796;9.930;2023-04-16T02:46:01;6.90;99.90
36206;DHT22;22242;48.796;9.930;2023-04-16T02:48:28;6.90;99.90
36206;DHT22;22242;48.796;9.930;2023-04-16T02:50:55;6.80;99.90
36206;DHT22;22242;48.796;9.930;2023-04-16T02:53:22;6.90;99.90
36206;DHT22;22242;48.796;9.930;2023-04-16T02:55:50;7.00;99.90
36206;DHT22;22242;48.796;9.930;2023-04-16T02:58:18;7.00;99.90
36206;DHT22;22242;48.796;9.930;2023-04-16T03:00:47;7.00;99.90
36206;DHT22;22242;48.796;9.930;2023-04-16T03:03:14;7.00;99.90
36206;DHT22;22242;48.796;9.930;2023-04-16T03:05:41;7.00;99.90
36206;DHT22;22242;48.796;9.930;2023-04-16T03:08:09;7.00;99.90
36206;DHT22;22242;48.796;9.930;2023-04-16T03:10:36;7.00;99.90
36206;DHT22;22242;48.796;9.930;2023-04-16T03:13:03;7.00;99.90
36206;DHT22;22242;48.796;9.930;2023-04-16T03:15:30;6.90;99.90
36206;DHT22;22242;48.796;9.930;2023-04-16T03:17:59;7.00;99.90
36206;DHT22;22242;48.796;9.930;2023-04-16T03:20:27;6.90;99.90
36206;DHT22;22242;48.796;9.930;2023-04-16T03:22:53;6.90;99.90
36206;DHT22;22242;48.796;9.930;2023-04-16T03:25:21;7.00;99.90
36206;DHT22;22242;48.796;9.930;2023-04-16T03:27:49;7.00;99.90
36206;DHT22;22242;48.796;9.930;2023-04-16T03:30:16;6.90;99.90
36206;DHT22;22242;48.796;9.930;2023-04-16T03:32:43;6.90;99.90
36206;DHT22;22242;48.796;9.930;2023-04-16T03:35:12;6.90;99.90
36206;DHT22;22242;48.796;9.930;2023-04-16T03:37:39;7.00;99.90
36206;DHT22;22242;48.796;9.930;2023-04-16T03:40:07;6.90;99.90
36206;DHT22;22242;48.796;9.930;2023-04-16T03:42:34;6.90;99.90
36206;DHT22;22242;48.796;9.930;2023-04-16T03:45:01;7.00;99.90
36206;DHT22;22242;48.796;9.930;2023-04-16T03:47:30;6.90;99.90
36206;DHT22;22242;48.796;9.930;2023-04-16T03:50:00;7.00;99.90
36206;DHT22;22242;48.796;9.930;2023-04-16T03:52:29;6.90;99.90
36206;DHT22;22242;48.796;9.930;2023-04-16T03:54:56;6.90;99.90
36206;DHT22;22242;48.796;9.930;2023-04-16T03:57:26;6.90;99.90
36206;DHT22;22242;48.796;9.930;2023-04-16T03:59:57;7.00;99.90
36206;DHT22;22242;48.796;9.930;2023-04-16T04:02:27;7.00;99.90
36206;DHT22;22242;48.796;9.930;2023-04-16T04:04:54;6.90;99.90
36206;DHT22;22242;48.796;9.930;2023-04-16T04:07:22;6.90;99.90
36206;DHT22;22242;48.796;9.930;2023-04-16T04:09:51;6.90;99.90
36206;DHT22;22242;48.796;9.930;2023-04-16T04:12:19;7.00;99.90
36206;DHT22;22242;48.796;9.930;2023-04-16T04:14:46;7.00;99.90
36206;DHT22;22242;48.796;9.930;2023-04-16T04:17:13;7.00;99.90
36206;DHT22;22242;48.796;9.930;2023-04-16T04:19:41;6.90;99.90
36206;DHT22;22242;48.796;9.930;2023-04-16T04:22:08;6.80;99.90
36206;DHT22;22242;48.796;9.930;2023-04-16T04:24:36;6.90;99.90
36206;DHT22;22242;48.796;9.930;2023-04-16T04:27:05;6.90;99.90
36206;DHT22;22242;48.796;9.930;2023-04-16T04:29:32;6.90;99.90
36206;DHT22;22242;48.796;9.930;2023-04-16T04:31:59;6.90;99.90
36206;DHT22;22242;48.796;9.930;2023-04-16T04:34:26;6.90;99.90
36206;DHT22;22242;48.796;9.930;2023-04-16T04:36:55;6.90;99.90
36206;DHT22;22242;48.796;9.930;2023-04-16T04:39:22;6.80;99.90
36206;DHT22;22242;48.796;9.930;2023-04-16T04:41:49;6.90;99.90
36206;DHT22;22242;48.796;9.930;2023-04-16T04:44:19;6.90;99.90
36206;DHT22;22242;48.796;9.930;2023-04-16T04:46:46;6.90;99.90
36206;DHT22;22242;48.796;9.930;2023-04-16T04:49:13;7.00;99.90
36206;DHT22;22242;48.796;9.930;2023-04-16T04:51:40;7.00;99.90
36206;DHT22;22242;48.796;9.930;2023-04-16T04:54:08;7.00;99.90
36206;DHT22;22242;48.796;9.930;2023-04-16T04:56:35;7.00;99.90
36206;DHT22;22242;48.796;9.930;2023-04-16T04:59:02;7.00;99.90
36206;DHT22;22242;48.796;9.930;2023-04-16T05:01:30;6.90;99.90
36206;DHT22;22242;48.796;9.930;2023-04-16T05:03:58;6.90;99.90
36206;DHT22;22242;48.796;9.930;2023-04-16T05:06:24;7.00;99.90
36206;DHT22;22242;48.796;9.930;2023-04-16T05:08:51;6.90;99.90
36206;DHT22;22242;48.796;9.930;2023-04-16T05:11:18;6.90;99.90
36206;DHT22;22242;48.796;9.930;2023-04-16T05:13:45;7.00;99.90
36206;DHT22;22242;48.796;9.930;2023-04-16T05:16:13;7.00;99.90
36206;DHT22;22242;48.796;9.930;2023-04-16T05:18:41;7.00;99.90
36206;DHT22;22242;48.796;9.930;2023-04-16T05:21:08;7.00;99.90
36206;DHT22;22242;48.796;9.930;2023-04-16T05:23:35;7.10;99.90
36206;DHT22;22242;48.796;9.930;2023-04-16T05:26:02;7.10;99.90
36206;DHT22;22242;48.796;9.930;2023-04-16T05:28:29;7.10;99.90
36206;DHT22;22242;48.796;9.930;2023-04-16T05:30:56;7.00;99.90
36206;DHT22;22242;48.796;9.930;2023-04-16T05:33:23;7.10;99.90
36206;DHT22;22242;48.796;9.930;2023-04-16T05:35:52;7.10;99.90
36206;DHT22;22242;48.796;9.930;2023-04-16T05:38:19;7.00;99.90
36206;DHT22;22242;48.796;9.930;2023-04-16T05:40:46;7.10;99.90
36206;DHT22;22242;48.796;9.930;2023-04-16T05:43:13;7.10;99.90
36206;DHT22;22242;48.796;9.930;2023-04-16T05:45:40;7.10;99.90
36206;DHT22;22242;48.796;9.930;2023-04-16T05:48:07;7.20;99.90
36206;DHT22;22242;48.796;9.930;2023-04-16T05:50:34;7.20;99.90
36206;DHT22;22242;48.796;9.930;2023-04-16T05:53:07;7.00;99.90
36206;DHT22;22242;48.796;9.930;2023-04-16T05:55:35;7.10;99.90
36206;DHT22;22242;48.796;9.930;2023-04-16T05:58:02;7.10;99.90
36206;DHT22;22242;48.796;9.930;2023-04-16T06:00:29;7.10;99.90
36206;DHT22;22242;48.796;9.930;2023-04-16T06:02:57;7.10;99.90
36206;DHT22;22242;48.796;9.930;2023-04-16T06:05:24;7.10;99.90
36206;DHT22;22242;48.796;9.930;2023-04-16T06:07:52;7.20;99.90
36206;DHT22;22242;48.796;9.930;2023-04-16T06:10:22;7.20;99.90
36206;DHT22;22242;48.796;9.930;2023-04-16T06:12:49;7.20;99.90
36206;DHT22;22242;48.796;9.930;2023-04-16T06:15:16;7.20;99.90
36206;DHT22;22242;48.796;9.930;2023-04-16T06:17:43;7.20;99.90
36206;DHT22;22242;48.796;9.930;2023-04-16T06:20:11;7.20;99.90
36206;DHT22;22242;48.796;9.930;2023-04-16T06:22:38;7.30;99.90
36206;DHT22;22242;48.796;9.930;2023-04-16T06:25:06;7.40;99.90
36206;DHT22;22242;48.796;9.930;2023-04-16T06:27:34;7.40;99.90
36206;DHT22;22242;48.796;9.930;2023-04-16T06:30:02;7.40;99.90
36206;DHT22;22242;48.796;9.930;2023-04-16T06:32:29;7.30;99.90
36206;DHT22;22242;48.796;9.930;2023-04-16T06:34:56;7.30;99.90
36206;DHT22;22242;48.796;9.930;2023-04-16T06:37:23;7.30;99.90
36206;DHT22;22242;48.796;9.930;2023-04-16T06:39:50;7.40;99.90
36206;DHT22;22242;48.796;9.930;2023-04-16T06:42:17;7.30;99.90
36206;DHT22;22242;48.796;9.930;2023-04-16T06:44:46;7.40;99.90
36206;DHT22;22242;48.796;9.930;2023-04-16T06:47:13;7.40;99.90
36206;DHT22;22242;48.796;9.930;2023-04-16T06:49:58;7.50;99.90
36206;DHT22;22242;48.796;9.930;2023-04-16T06:52:26;7.50;99.90
36206;DHT22;22242;48.796;9.930;2023-04-16T06:54:55;7.50;99.90
36206;DHT22;22242;48.796;9.930;2023-04-16T06:57:22;7.50;99.90
36206;DHT22;22242;48.796;9.930;2023-04-16T06:59:50;7.40;99.90
36206;DHT22;22242;48.796;9.930;2023-04-16T07:02:17;7.50;99.90
36206;DHT22;22242;48.796;9.930;2023-04-16T07:04:44;7.60;99.90
36206;DHT22;22242;48.796;9.930;2023-04-16T07:07:11;7.50;99.90
36206;DHT22;22242;48.796;9.930;2023-04-16T07:09:38;7.50;99.90
36206;DHT22;22242;48.796;9.930;2023-04-16T07:12:05;7.50;99.90
36206;DHT22;22242;48.796;9.930;2023-04-16T07:14:33;7.60;99.90
36206;DHT22;22242;48.796;9.930;2023-04-16T07:17:01;7.60;99.90
36206;DHT22;22242;48.796;9.930;2023-04-16T07:19:28;7.60;99.90
36206;DHT22;22242;48.796;9.930;2023-04-16T07:21:57;7.70;99.90
36206;DHT22;22242;48.796;9.930;2023-04-16T07:24:24;7.90;99.90
36206;DHT22;22242;48.796;9.930;2023-04-16T07:26:51;8.00;99.90
36206;DHT22;22242;48.796;9.930;2023-04-16T07:29:18;8.00;99.90
36206;DHT22;22242;48.796;9.930;2023-04-16T07:31:45;8.00;99.90
36206;DHT22;22242;48.796;9.930;2023-04-16T07:34:14;7.90;99.90
36206;DHT22;22242;48.796;9.930;2023-04-16T07:36:41;7.90;99.90
36206;DHT22;22242;48.796;9.930;2023-04-16T07:39:08;7.90;99.90
36206;DHT22;22242;48.796;9.930;2023-04-16T07:41:36;7.70;99.90
36206;DHT22;22242;48.796;9.930;2023-04-16T07:44:04;7.80;99.90
36206;DHT22;22242;48.796;9.930;2023-04-16T07:46:31;7.80;99.90
36206;DHT22;22242;48.796;9.930;2023-04-16T07:48:58;7.80;99.90
36206;DHT22;22242;48.796;9.930;2023-04-16T07:51:27;7.70;99.90
36206;DHT22;22242;48.796;9.930;2023-04-16T07:53:54;7.70;99.90
36206;DHT22;22242;48.796;9.930;2023-04-16T07:56:21;7.80;99.90
36206;DHT22;22242;48.796;9.930;2023-04-16T07:58:48;7.70;99.90
36206;DHT22;22242;48.796;9.930;2023-04-16T08:01:15;7.70;99.90
36206;DHT22;22242;48.796;9.930;2023-04-16T08:03:42;7.80;99.90
36206;DHT22;22242;48.796;9.930;2023-04-16T08:06:09;7.80;99.90
36206;DHT22;22242;48.796;9.930;2023-04-16T08:08:37;7.80;99.90
36206;DHT22;22242;48.796;9.930;2023-04-16T08:11:04;7.80;99.90
36206;DHT22;22242;48.796;9.930;2023-04-16T08:13:31;7.80;99.90
36206;DHT22;22242;48.796;9.930;2023-04-16T08:15:58;7.80;99.90
36206;DHT22;22242;48.796;9.930;2023-04-16T08:18:25;7.80;99.90
36206;DHT22;22242;48.796;9.930;2023-04-16T08:20:52;7.70;99.90
36206;DHT22;22242;48.796;9.930;2023-04-16T08:23:19;7.80;99.90
36206;DHT22;22242;48.796;9.930;2023-04-16T08:25:48;7.80;99.90
36206;DHT22;22242;48.796;9.930;2023-04-16T08:28:15;7.80;99.90
36206;DHT22;22242;48.796;9.930;2023-04-16T08:30:42;7.90;99.90
36206;DHT22;22242;48.796;9.930;2023-04-16T08:33:10;7.80;99.90
36206;DHT22;22242;48.796;9.930;2023-04-16T08:35:38;7.80;99.90
36206;DHT22;22242;48.796;9.930;2023-04-16T08:38:06;7.90;99.90
36206;DHT22;22242;48.796;9.930;2023-04-16T08:40:34;7.90;99.90
36206;DHT22;22242;48.796;9.930;2023-04-16T08:43:08;7.80;99.90
36206;DHT22;22242;48.796;9.930;2023-04-16T08:45:37;7.80;99.90
36206;DHT22;22242;48.796;9.930;2023-04-16T08:48:04;7.80;99.90
36206;DHT22;22242;48.796;9.930;2023-04-16T08:50:32;7.80;99.90
36206;DHT22;22242;48.796;9.930;2023-04-16T08:53:04;7.70;99.90
36206;DHT22;22242;48.796;9.930;2023-04-16T08:55:36;7.70;99.90
36206;DHT22;22242;48.796;9.930;2023-04-16T08:58:07;7.80;99.90
36206;DHT22;22242;48.796;9.930;2023-04-16T09:00:36;7.80;99.90
36206;DHT22;22242;48.796;9.930;2023-04-16T09:03:06;7.80;99.90
36206;DHT22;22242;48.796;9.930;2023-04-16T09:05:34;7.90;99.90
36206;DHT22;22242;48.796;9.930;2023-04-16T09:08:01;7.90;99.90
36206;DHT22;22242;48.796;9.930;2023-04-16T09:10:30;7.90;99.90
36206;DHT22;22242;48.796;9.930;2023-04-16T09:12:57;7.90;99.90
36206;DHT22;22242;48.796;9.930;2023-04-16T09:15:26;7.90;99.90
36206;DHT22;22242;48.796;9.930;2023-04-16T09:17:54;7.90;99.90
36206;DHT22;22242;48.796;9.930;2023-04-16T09:20:22;7.90;99.90
36206;DHT22;22242;48.796;9.930;2023-04-16T09:22:50;7.90;99.90
36206;DHT22;22242;48.796;9.930;2023-04-16T09:25:19;8.00;99.90
36206;DHT22;22242;48.796;9.930;2023-04-16T09:27:48;8.00;99.90
36206;DHT22;22242;48.796;9.930;2023-04-16T09:30:20;8.00;99.90
36206;DHT22;22242;48.796;9.930;2023-04-16T09:32:49;8.00;99.90
36206;DHT22;22242;48.796;9.930;2023-04-16T09:35:17;7.90;99.90
36206;DHT22;22242;48.796;9.930;2023-04-16T09:37:54;8.00;99.90
36206;DHT22;22242;48.796;9.930;2023-04-16T09:40:25;8.20;99.90
36206;DHT22;22242;48.796;9.930;2023-04-16T09:42:57;8.20;99.90
36206;DHT22;22242;48.796;9.930;2023-04-16T09:45:30;8.10;99.90
36206;DHT22;22242;48.796;9.930;2023-04-16T09:48:03;8.20;99.90
36206;DHT22;22242;48.796;9.930;2023-04-16T09:50:31;8.10;99.90
36206;DHT22;22242;48.796;9.930;2023-04-16T09:53:00;8.10;99.90
36206;DHT22;22242;48.796;9.930;2023-04-16T09:55:28;8.20;99.90
36206;DHT22;22242;48.796;9.930;2023-04-16T09:57:58;8.20;99.90
36206;DHT22;22242;48.796;9.930;2023-04-16T10:00:28;8.20;99.90
36206;DHT22;22242;48.796;9.930;2023-04-16T10:03:03;8.20;99.90
36206;DHT22;22242;48.796;9.930;2023-04-16T10:05:31;8.10;99.90
36206;DHT22;22242;48.796;9.930;2023-04-16T10:07:59;8.00;99.90
36206;DHT22;22242;48.796;9.930;2023-04-16T10:10:26;8.00;99.90
36206;DHT22;22242;48.796;9.930;2023-04-16T10:12:54;8.00;99.90
36206;DHT22;22242;48.796;9.930;2023-04-16T10:15:22;8.00;99.90
36206;DHT22;22242;48.796;9.930;2023-04-16T10:17:50;8.10;99.90
36206;DHT22;22242;48.796;9.930;2023-04-16T10:20:18;8.10;99.90
36206;DHT22;22242;48.796;9.930;2023-04-16T10:22:46;8.20;99.90
36206;DHT22;22242;48.796;9.930;2023-04-16T10:25:13;8.20;99.90
36206;DHT22;22242;48.796;9.930;2023-04-16T10:27:40;8.20;99.90
36206;DHT22;22242;48.796;9.930;2023-04-16T10:30:09;8.20;99.90
36206;DHT22;22242;48.796;9.930;2023-04-16T10:32:37;8.20;99.90
36206;DHT22;22242;48.796;9.930;2023-04-16T10:35:05;8.20;99.90
36206;DHT22;22242;48.796;9.930;2023-04-16T10:37:36;8.20;99.90
36206;DHT22;22242;48.796;9.930;2023-04-16T10:40:21;8.10;99.90
36206;DHT22;22242;48.796;9.930;2023-04-16T10:42:53;8.20;99.90
36206;DHT22;22242;48.796;9.930;2023-04-16T10:45:25;8.10;99.90
36206;DHT22;22242;48.796;9.930;2023-04-16T10:47:54;8.10;99.90
36206;DHT22;22242;48.796;9.930;2023-04-16T10:50:22;8.10;99.90
36206;DHT22;22242;48.796;9.930;2023-04-16T10:53:16;8.20;99.90
36206;DHT22;22242;48.796;9.930;2023-04-16T10:56:09;8.10;99.90
36206;DHT22;22242;48.796;9.930;2023-04-16T10:58:37;8.10;99.90
36206;DHT22;22242;48.796;9.930;2023-04-16T11:01:06;8.10;99.90
36206;DHT22;22242;48.796;9.930;2023-04-16T11:03:40;8.10;99.90
36206;DHT22;22242;48.796;9.930;2023-04-16T11:06:14;8.10;99.90
36206;DHT22;22242;48.796;9.930;2023-04-16T11:08:44;8.00;99.90
36206;DHT22;22242;48.796;9.930;2023-04-16T11:11:12;8.10;99.90
36206;DHT22;22242;48.796;9.930;2023-04-16T11:13:42;8.00;99.90
36206;DHT22;22242;48.796;9.930;2023-04-16T11:16:10;8.00;99.90
36206;DHT22;22242;48.796;9.930;2023-04-16T11:18:39;7.90;99.90
36206;DHT22;22242;48.796;9.930;2023-04-16T11:21:07;7.90;99.90
36206;DHT22;22242;48.796;9.930;2023-04-16T11:23:50;7.90;99.90
36206;DHT22;22242;48.796;9.930;2023-04-16T11:26:23;7.90;99.90
36206;DHT22;22242;48.796;9.930;2023-04-16T11:28:50;7.80;99.90
36206;DHT22;22242;48.796;9.930;2023-04-16T11:31:17;7.70;99.90
36206;DHT22;22242;48.796;9.930;2023-04-16T11:33:45;7.80;99.90
36206;DHT22;22242;48.796;9.930;2023-04-16T11:36:12;7.80;99.90
36206;DHT22;22242;48.796;9.930;2023-04-16T11:38:39;7.80;99.90
36206;DHT22;22242;48.796;9.930;2023-04-16T11:41:09;7.80;99.90
36206;DHT22;22242;48.796;9.930;2023-04-16T11:43:36;7.80;99.90
36206;DHT22;22242;48.796;9.930;2023-04-16T11:46:05;7.80;99.90
36206;DHT22;22242;48.796;9.930;2023-04-16T11:48:51;7.80;99.90
36206;DHT22;22242;48.796;9.930;2023-04-16T11:51:19;7.90;99.90
36206;DHT22;22242;48.796;9.930;2023-04-16T11:53:48;7.90;99.90
36206;DHT22;22242;48.796;9.930;2023-04-16T11:56:28;7.80;99.90
36206;DHT22;22242;48.796;9.930;2023-04-16T11:59:06;7.90;99.90
36206;DHT22;22242;48.796;9.930;2023-04-16T12:01:34;8.00;99.90
36206;DHT22;22242;48.796;9.930;2023-04-16T12:04:01;8.10;99.90
36206;DHT22;22242;48.796;9.930;2023-04-16T12:06:28;8.10;99.90
36206;DHT22;22242;48.796;9.930;2023-04-16T12:08:57;8.10;99.90
36206;DHT22;22242;48.796;9.930;2023-04-16T12:11:38;8.20;99.90
36206;DHT22;22242;48.796;9.930;2023-04-16T12:14:06;8.20;99.90
36206;DHT22;22242;48.796;9.930;2023-04-16T12:16:33;8.30;99.90
36206;DHT22;22242;48.796;9.930;2023-04-16T12:19:01;8.30;99.90
36206;DHT22;22242;48.796;9.930;2023-04-16T12:21:39;8.30;99.90
36206;DHT22;22242;48.796;9.930;2023-04-16T12:24:07;8.20;99.90
36206;DHT22;22242;48.796;9.930;2023-04-16T12:26:40;8.10;99.90
36206;DHT22;22242;48.796;9.930;2023-04-16T12:29:15;8.20;99.90
36206;DHT22;22242;48.796;9.930;2023-04-16T12:31:43;8.10;99.90
36206;DHT22;22242;48.796;9.930;2023-04-16T12:34:10;8.20;99.90
36206;DHT22;22242;48.796;9.930;2023-04-16T12:36:37;8.30;99.90
36206;DHT22;22242;48.796;9.930;2023-04-16T12:39:04;8.30;99.90
36206;DHT22;22242;48.796;9.930;2023-04-16T12:41:33;8.30;99.90
36206;DHT22;22242;48.796;9.930;2023-04-16T12:44:05;8.20;99.90
36206;DHT22;22242;48.796;9.930;2023-04-16T12:46:34;8.10;99.90
36206;DHT22;22242;48.796;9.930;2023-04-16T12:49:02;8.20;99.90
36206;DHT22;22242;48.796;9.930;2023-04-16T12:51:30;8.20;99.90
36206;DHT22;22242;48.796;9.930;2023-04-16T12:53:58;8.10;99.90
36206;DHT22;22242;48.796;9.930;2023-04-16T12:56:25;8.20;99.90
36206;DHT22;22242;48.796;9.930;2023-04-16T12:58:52;8.30;99.90
36206;DHT22;22242;48.796;9.930;2023-04-16T13:01:21;8.20;99.90
36206;DHT22;22242;48.796;9.930;2023-04-16T13:03:48;8.20;99.90
36206;DHT22;22242;48.796;9.930;2023-04-16T13:06:16;8.20;99.90
36206;DHT22;22242;48.796;9.930;2023-04-16T13:08:43;8.20;99.90
36206;DHT22;22242;48.796;9.930;2023-04-16T13:11:11;8.20;99.90
36206;DHT22;22242;48.796;9.930;2023-04-16T13:13:38;8.30;99.90
36206;DHT22;22242;48.796;9.930;2023-04-16T13:16:05;8.30;99.90
36206;DHT22;22242;48.796;9.930;2023-04-16T13:18:35;8.20;99.90
36206;DHT22;22242;48.796;9.930;2023-04-16T13:21:02;8.20;99.90
36206;DHT22;22242;48.796;9.930;2023-04-16T13:23:30;8.10;99.90
36206;DHT22;22242;48.796;9.930;2023-04-16T13:25:56;8.30;99.90
36206;DHT22;22242;48.796;9.930;2023-04-16T13:28:24;8.20;99.90
36206;DHT22;22242;48.796;9.930;2023-04-16T13:30:51;8.20;99.90
36206;DHT22;22242;48.796;9.930;2023-04-16T13:33:19;8.10;99.90
36206;DHT22;22242;48.796;9.930;2023-04-16T13:35:48;8.20;99.90
36206;DHT22;22242;48.796;9.930;2023-04-16T13:38:15;8.30;99.90
36206;DHT22;22242;48.796;9.930;2023-04-16T13:40:43;8.40;99.90
36206;DHT22;22242;48.796;9.930;2023-04-16T13:43:10;8.40;99.90
36206;DHT22;22242;48.796;9.930;2023-04-16T13:45:38;8.20;99.90
36206;DHT22;22242;48.796;9.930;2023-04-16T13:48:06;8.30;99.90
36206;DHT22;22242;48.796;9.930;2023-04-16T13:50:33;8.30;99.90
36206;DHT22;22242;48.796;9.930;2023-04-16T13:53:01;8.20;99.90
36206;DHT22;22242;48.796;9.930;2023-04-16T13:55:29;8.20;99.90
36206;DHT22;22242;48.796;9.930;2023-04-16T13:57:57;8.30;99.90
36206;DHT22;22242;48.796;9.930;2023-04-16T14:00:25;8.20;99.90
36206;DHT22;22242;48.796;9.930;2023-04-16T14:02:52;8.20;99.90
36206;DHT22;22242;48.796;9.930;2023-04-16T14:05:19;8.30;99.90
36206;DHT22;22242;48.796;9.930;2023-04-16T14:07:47;8.30;99.90
36206;DHT22;22242;48.796;9.930;2023-04-16T14:10:16;8.30;99.90
36206;DHT22;22242;48.796;9.930;2023-04-16T14:12:43;8.20;99.90
36206;DHT22;22242;48.796;9.930;2023-04-16T14:15:10;8.30;99.90
36206;DHT22;22242;48.796;9.930;2023-04-16T14:17:40;8.30;99.90
36206;DHT22;22242;48.796;9.930;2023-04-16T14:20:08;8.20;99.90
36206;DHT22;22242;48.796;9.930;2023-04-16T14:22:36;8.30;99.90
36206;DHT22;22242;48.796;9.930;2023-04-16T14:25:04;8.30;99.90
36206;DHT22;22242;48.796;9.930;2023-04-16T14:27:33;8.30;99.90
36206;DHT22;22242;48.796;9.930;2023-04-16T14:30:00;8.30;99.90
36206;DHT22;22242;48.796;9.930;2023-04-16T14:32:27;8.30;99.90
36206;DHT22;22242;48.796;9.930;2023-04-16T14:34:55;8.30;99.90
36206;DHT22;22242;48.796;9.930;2023-04-16T14:37:22;8.20;99.90
36206;DHT22;22242;48.796;9.930;2023-04-16T14:39:49;8.30;99.90
36206;DHT22;22242;48.796;9.930;2023-04-16T14:42:16;8.30;99.90
36206;DHT22;22242;48.796;9.930;2023-04-16T14:44:44;8.30;99.90
36206;DHT22;22242;48.796;9.930;2023-04-16T14:47:11;8.30;99.90
36206;DHT22;22242;48.796;9.930;2023-04-16T14:49:38;8.30;99.90
36206;DHT22;22242;48.796;9.930;2023-04-16T14:52:05;8.30;99.90
36206;DHT22;22242;48.796;9.930;2023-04-16T14:54:33;8.30;99.90
36206;DHT22;22242;48.796;9.930;2023-04-16T14:56:59;8.30;99.90
36206;DHT22;22242;48.796;9.930;2023-04-16T14:59:28;8.30;99.90
36206;DHT22;22242;48.796;9.930;2023-04-16T15:01:57;8.30;99.90
36206;DHT22;22242;48.796;9.930;2023-04-16T15:04:24;8.30;99.90
36206;DHT22;22242;48.796;9.930;2023-04-16T15:07:10;8.40;99.90
36206;DHT22;22242;48.796;9.930;2023-04-16T15:09:37;8.40;99.90
36206;DHT22;22242;48.796;9.930;2023-04-16T15:12:04;8.50;99.90
36206;DHT22;22242;48.796;9.930;2023-04-16T15:14:31;8.30;99.90
36206;DHT22;22242;48.796;9.930;2023-04-16T15:16:59;8.30;99.90
36206;DHT22;22242;48.796;9.930;2023-04-16T15:19:26;8.30;99.90
36206;DHT22;22242;48.796;9.930;2023-04-16T15:21:53;8.40;99.90
36206;DHT22;22242;48.796;9.930;2023-04-16T15:24:21;8.50;99.90
36206;DHT22;22242;48.796;9.930;2023-04-16T15:26:48;8.40;99.90
36206;DHT22;22242;48.796;9.930;2023-04-16T15:29:15;8.30;99.90
36206;DHT22;22242;48.796;9.930;2023-04-16T15:31:42;8.30;99.90
36206;DHT22;22242;48.796;9.930;2023-04-16T15:34:10;8.40;99.90
36206;DHT22;22242;48.796;9.930;2023-04-16T15:36:37;8.30;99.90
36206;DHT22;22242;48.796;9.930;2023-04-16T15:39:04;8.40;99.90
36206;DHT22;22242;48.796;9.930;2023-04-16T15:41:31;8.40;99.90
36206;DHT22;22242;48.796;9.930;2023-04-16T15:44:00;8.30;99.90
36206;DHT22;22242;48.796;9.930;2023-04-16T15:46:27;8.40;99.90
36206;DHT22;22242;48.796;9.930;2023-04-16T15:48:54;8.30;99.90
36206;DHT22;22242;48.796;9.930;2023-04-16T15:51:23;8.30;99.90